Time;durP1;ratioP1;P1;durP2;ratioP2;P2;SDS_P1;SDS_P2;PMS_P1;PMS_P2;Temp;Humidity;BMP_temperature;BMP_pressure;BME280_temperature;BME280_humidity;BME280_pressure;Samples;Min_cycle;Max_cycle;Signal;HPM_P1;HPM_P2
2020/12/27 00:00:33;;;;;;;;;;;;;;;0.56;100.00;100401.13;5051548;28;19925;-72
2020/12/27 00:02:59;;;;;;;;;;;;;;;0.54;100.00;100392.34;5051269;28;19924;-72
2020/12/27 00:05:24;;;;;;;;;;;;;;;0.52;100.00;100392.38;5051486;28;19932;-71
2020/12/27 00:07:50;;;;;;;;;;;;;;;0.53;100.00;100398.59;5051098;28;19925;-72
2020/12/27 00:10:16;;;;;;;;;;;;;;;0.52;100.00;100396.84;5051424;28;19924;-72
2020/12/27 00:12:43;;;;;;;;;;;;;;;0.54;100.00;100390.50;5051393;28;19955;-72
2020/12/27 00:15:08;;;;;;;;;;;;;;;0.56;100.00;100372.63;5051364;28;19973;-72
2020/12/27 00:17:34;;;;;;;;;;;;;;;0.58;100.00;100375.22;5051174;28;19925;-72
2020/12/27 00:20:00;;;;;;;;;;;;;;;0.58;100.00;100361.88;5050911;28;19932;-72
2020/12/27 00:22:26;;;;;;;;;;;;;;;0.55;100.00;100359.31;5051319;28;19929;-72
2020/12/27 00:24:51;;;;;;;;;;;;;;;0.52;100.00;100351.44;5050395;28;19925;-72
2020/12/27 00:27:18;;;;;;;;;;;;;;;0.48;100.00;100343.59;5051173;28;19928;-72
2020/12/27 00:29:44;;;;;;;;;;;;;;;0.45;100.00;100341.03;5051209;28;20015;-72
2020/12/27 00:32:10;;;;;;;;;;;;;;;0.44;100.00;100336.66;5051219;28;19924;-72
2020/12/27 00:34:37;;;;;;;;;;;;;;;0.43;100.00;100340.25;5051135;28;19932;-72
2020/12/27 00:37:03;;;;;;;;;;;;;;;0.43;100.00;100342.06;5050758;28;19936;-72
2020/12/27 00:39:29;;;;;;;;;;;;;;;0.43;100.00;100342.06;5050884;28;19925;-72
2020/12/27 00:41:57;;;;;;;;;;;;;;;0.41;100.00;100338.59;5051079;28;20518;-72
2020/12/27 00:44:23;;;;;;;;;;;;;;;0.41;100.00;100336.78;5050358;28;19925;-72
2020/12/27 00:46:50;;;;;;;;;;;;;;;0.37;100.00;100319.16;5050808;28;19940;-72
2020/12/27 00:49:16;;;;;;;;;;;;;;;0.36;100.00;100324.56;5051204;28;20019;-72
2020/12/27 00:51:42;;;;;;;;;;;;;;;0.33;100.00;100312.22;5051011;28;19925;-72
2020/12/27 00:54:07;;;;;;;;;;;;;;;0.32;100.00;100311.38;5048724;28;20275;-72
2020/12/27 00:56:33;;;;;;;;;;;;;;;0.35;100.00;100307.69;5048551;28;19931;-72
2020/12/27 00:59:10;;;;;;;;;;;;;;;0.34;100.00;100311.28;5049931;28;19932;-72
2020/12/27 01:01:36;;;;;;;;;;;;;;;0.37;100.00;100307.63;5050041;28;19954;-72
2020/12/27 01:04:22;;;;;;;;;;;;;;;0.38;100.00;100298.69;5051266;28;19932;-72
2020/12/27 01:06:48;;;;;;;;;;;;;;;0.37;100.00;100292.44;5052392;28;19924;-72
2020/12/27 01:09:15;;;;;;;;;;;;;;;0.35;100.00;100288.13;5053702;28;19932;-72
2020/12/27 01:11:41;;;;;;;;;;;;;;;0.31;100.00;100293.59;5054859;28;19924;-73
2020/12/27 01:14:07;;;;;;;;;;;;;;;0.28;100.00;100285.75;5053160;28;19971;-72
2020/12/27 01:16:33;;;;;;;;;;;;;;;0.25;100.00;100293.00;5053357;28;19928;-72
2020/12/27 01:19:01;;;;;;;;;;;;;;;0.23;100.00;100276.19;5053168;28;19925;-72
2020/12/27 01:21:35;;;;;;;;;;;;;;;0.23;100.00;100282.41;5053331;28;19951;-71
2020/12/27 01:24:08;;;;;;;;;;;;;;;0.20;100.00;100271.88;5053272;28;19925;-72
2020/12/27 01:26:39;;;;;;;;;;;;;;;0.16;100.00;100271.16;5053133;28;19929;-72
2020/12/27 01:29:05;;;;;;;;;;;;;;;0.14;100.00;100280.16;5054256;28;19931;-72
2020/12/27 01:31:34;;;;;;;;;;;;;;;0.13;100.00;100265.06;5053007;28;19924;-72
2020/12/27 01:34:07;;;;;;;;;;;;;;;0.14;100.00;100258.81;5036305;28;19968;-72
2020/12/27 01:36:39;;;;;;;;;;;;;;;0.09;100.00;100245.66;5052927;28;20009;-72
2020/12/27 01:39:12;;;;;;;;;;;;;;;0.08;100.00;100245.72;5052972;28;20309;-72
2020/12/27 01:41:39;;;;;;;;;;;;;;;0.05;100.00;100228.03;5052979;28;20027;-72
2020/12/27 01:44:13;;;;;;;;;;;;;;;0.03;100.00;100221.94;5052949;28;20424;-72
2020/12/27 01:46:44;;;;;;;;;;;;;;;0.01;100.00;100218.44;5052806;28;19928;-72
2020/12/27 01:49:15;;;;;;;;;;;;;;;-0.03;100.00;100209.72;5035997;28;19963;-72
2020/12/27 01:51:42;;;;;;;;;;;;;;;-0.04;100.00;100196.44;5052621;28;19931;-72
2020/12/27 01:54:08;;;;;;;;;;;;;;;-0.04;100.00;100209.78;5052707;28;19928;-72
2020/12/27 01:56:57;;;;;;;;;;;;;;;-0.03;100.00;100203.50;5053746;28;19925;-72
2020/12/27 01:59:27;;;;;;;;;;;;;;;-0.06;100.00;100207.19;5052609;28;20377;-72
2020/12/27 02:01:58;;;;;;;;;;;;;;;-0.06;100.00;100187.66;5052807;28;19931;-72
2020/12/27 02:04:42;;;;;;;;;;;;;;;-0.03;100.00;100184.81;5053831;28;19936;-72
2020/12/27 02:07:12;;;;;;;;;;;;;;;-0.06;100.00;100184.97;5052515;28;19935;-72
2020/12/27 02:09:57;;;;;;;;;;;;;;;-0.09;100.00;100175.31;5052207;28;20313;-72
2020/12/27 02:12:25;;;;;;;;;;;;;;;-0.11;100.00;100170.97;5052475;28;19968;-72
2020/12/27 02:14:52;;;;;;;;;;;;;;;-0.13;100.00;100164.81;5052539;28;19931;-73
2020/12/27 02:17:21;;;;;;;;;;;;;;;-0.14;100.00;100165.78;5051312;28;20394;-72
2020/12/27 02:20:00;;;;;;;;;;;;;;;-0.15;100.00;100159.56;5052158;28;20408;-72
2020/12/27 02:22:42;;;;;;;;;;;;;;;-0.16;100.00;100149.84;5052462;28;20027;-73
2020/12/27 02:25:25;;;;;;;;;;;;;;;-0.14;100.00;100147.97;5052246;28;19932;-72
2020/12/27 02:28:01;;;;;;;;;;;;;;;-0.08;100.00;100136.13;5052084;28;20256;-72
2020/12/27 02:30:27;;;;;;;;;;;;;;;-0.07;100.00;100138.72;5052114;28;20047;-72
2020/12/27 02:32:55;;;;;;;;;;;;;;;-0.11;100.00;100130.94;5051995;28;20454;-72
2020/12/27 02:35:21;;;;;;;;;;;;;;;-0.12;100.00;100129.22;5051970;28;19925;-72
2020/12/27 02:37:51;;;;;;;;;;;;;;;-0.14;100.00;100125.78;5051771;28;20338;-72
2020/12/27 02:40:17;;;;;;;;;;;;;;;-0.13;100.00;100108.81;5051805;28;19925;-72
2020/12/27 02:43:14;;;;;;;;;;;;;;;-0.13;100.00;100106.13;5051852;28;19932;-72
2020/12/27 02:45:41;;;;;;;;;;;;;;;-0.13;100.00;100088.34;5051639;28;19932;-73
2020/12/27 02:48:25;;;;;;;;;;;;;;;-0.14;100.00;100089.28;5052546;28;19936;-72
2020/12/27 02:50:57;;;;;;;;;;;;;;;-0.18;100.00;100085.88;5051959;28;19929;-72
2020/12/27 02:53:25;;;;;;;;;;;;;;;-0.11;100.00;100088.25;5048329;28;19994;-72
2020/12/27 02:55:51;;;;;;;;;;;;;;;-0.09;100.00;100071.25;5052551;28;20386;-72
2020/12/27 02:58:18;;;;;;;;;;;;;;;-0.07;100.00;100081.84;5051399;28;19925;-72
2020/12/27 03:00:49;;;;;;;;;;;;;;;-0.09;100.00;100063.25;5051590;28;19970;-72
2020/12/27 03:03:33;;;;;;;;;;;;;;;-0.08;100.00;100054.31;5052608;28;20363;-72
2020/12/27 03:06:07;;;;;;;;;;;;;;;-0.09;100.00;100062.38;5051317;28;19925;-72
2020/12/27 03:08:33;;;;;;;;;;;;;;;-0.12;100.00;100054.50;5050991;28;20019;-72
2020/12/27 03:11:14;;;;;;;;;;;;;;;-0.14;100.00;100041.25;5051469;28;19966;-72
2020/12/27 03:13:42;;;;;;;;;;;;;;;-0.12;100.00;100043.84;5051317;28;19931;-72
2020/12/27 03:16:08;;;;;;;;;;;;;;;-0.12;100.00;100031.38;5050952;28;19925;-72
2020/12/27 03:18:52;;;;;;;;;;;;;;;-0.14;100.00;100029.72;5052213;28;19931;-72
2020/12/27 03:21:36;;;;;;;;;;;;;;;-0.11;100.00;100017.06;5051191;28;19925;-72
2020/12/27 03:24:07;;;;;;;;;;;;;;;-0.08;100.00;100013.38;5050983;28;19932;-72
2020/12/27 03:26:35;;;;;;;;;;;;;;;-0.10;100.00;100004.63;5051903;28;20031;-72
2020/12/27 03:29:02;;;;;;;;;;;;;;;-0.13;100.00;100005.63;5049755;28;19925;-72
2020/12/27 03:31:29;;;;;;;;;;;;;;;-0.17;100.00;100007.56;5050879;28;19925;-72
2020/12/27 03:34:03;;;;;;;;;;;;;;;-0.11;100.00;100008.22;5050897;28;19944;-72
2020/12/27 03:36:28;;;;;;;;;;;;;;;-0.08;100.00;99986.72;5050853;28;19932;-72
2020/12/27 03:39:01;;;;;;;;;;;;;;;-0.06;100.00;99980.38;5050923;28;19932;-72
2020/12/27 03:41:57;;;;;;;;;;;;;;;-0.03;100.00;99974.91;5050926;28;19971;-72
2020/12/27 03:44:32;;;;;;;;;;;;;;;-0.05;100.00;99975.91;5050606;28;20370;-72
2020/12/27 03:47:27;;;;;;;;;;;;;;;-0.07;100.00;99980.44;5033217;28;19933;-72
2020/12/27 03:50:05;;;;;;;;;;;;;;;-0.05;100.00;99963.41;5050744;28;19944;-72
2020/12/27 03:52:39;;;;;;;;;;;;;;;-0.06;100.00;99963.50;5050780;28;19928;-72
2020/12/27 03:55:14;;;;;;;;;;;;;;;-0.06;100.00;99967.03;5050604;28;20015;-72
2020/12/27 03:58:01;;;;;;;;;;;;;;;-0.05;100.00;99965.22;5050471;28;19932;-72
2020/12/27 04:00:40;;;;;;;;;;;;;;;-0.07;100.00;99967.94;5050459;28;19931;-72
2020/12/27 04:03:18;;;;;;;;;;;;;;;-0.06;100.00;99964.34;5050261;28;19929;-72
2020/12/27 04:05:45;;;;;;;;;;;;;;;-0.04;100.00;99966.94;5049962;28;20010;-72
2020/12/27 04:08:12;;;;;;;;;;;;;;;-0.07;100.00;99964.44;5050183;28;19924;-72
2020/12/27 04:10:41;;;;;;;;;;;;;;;-0.08;100.00;99954.69;5050420;28;19925;-72
2020/12/27 04:13:07;;;;;;;;;;;;;;;-0.06;100.00;99945.69;5050168;28;19932;-72
2020/12/27 04:15:34;;;;;;;;;;;;;;;-0.04;100.00;99932.25;5050155;28;20437;-72
2020/12/27 04:18:08;;;;;;;;;;;;;;;-0.01;100.00;99914.28;5050172;28;20302;-72
2020/12/27 04:20:57;;;;;;;;;;;;;;;-0.02;100.00;99906.38;5051277;28;20055;-71
2020/12/27 04:23:23;;;;;;;;;;;;;;;-0.04;100.00;99895.78;5051096;28;20295;-72
2020/12/27 04:25:49;;;;;;;;;;;;;;;-0.06;100.00;99891.44;5050158;28;20310;-72
2020/12/27 04:28:15;;;;;;;;;;;;;;;-0.05;100.00;99883.38;5049926;28;19925;-72
2020/12/27 04:30:41;;;;;;;;;;;;;;;-0.03;100.00;99883.28;5050088;28;19929;-72
2020/12/27 04:33:28;;;;;;;;;;;;;;;-0.06;100.00;99873.63;5050036;28;19933;-72
2020/12/27 04:36:08;;;;;;;;;;;;;;;-0.03;100.00;99867.28;5049735;28;20327;-72
2020/12/27 04:38:34;;;;;;;;;;;;;;;-0.06;100.00;99862.94;5049739;28;19931;-72
2020/12/27 04:41:00;;;;;;;;;;;;;;;-0.03;100.00;99859.28;5051407;28;19925;-72
2020/12/27 04:43:27;;;;;;;;;;;;;;;-0.04;100.00;99844.19;5054000;28;19947;-72
2020/12/27 04:45:54;;;;;;;;;;;;;;;-0.06;100.00;99848.75;5053913;28;19932;-72
2020/12/27 04:48:30;;;;;;;;;;;;;;;-0.11;100.00;99840.97;5053992;28;20028;-72
2020/12/27 04:51:15;;;;;;;;;;;;;;;-0.12;100.00;99835.72;5052252;28;19975;-72
2020/12/27 04:53:48;;;;;;;;;;;;;;;-0.10;100.00;99823.19;5054053;28;19925;-72
2020/12/27 04:56:22;;;;;;;;;;;;;;;-0.08;100.00;99829.28;5053678;28;19924;-72
2020/12/27 04:59:02;;;;;;;;;;;;;;;-0.11;100.00;99810.78;5053695;28;19925;-72
2020/12/27 05:01:28;;;;;;;;;;;;;;;-0.10;100.00;99818.69;5053748;28;19978;-72
2020/12/27 05:04:04;;;;;;;;;;;;;;;-0.11;100.00;99810.78;5053753;28;19928;-72
2020/12/27 05:06:38;;;;;;;;;;;;;;;-0.10;100.00;99807.19;5053550;28;19964;-72
2020/12/27 05:09:07;;;;;;;;;;;;;;;-0.07;100.00;99805.19;5053567;28;19925;-72
2020/12/27 05:11:34;;;;;;;;;;;;;;;-0.08;100.00;99794.59;5053651;28;20069;-72
2020/12/27 05:14:08;;;;;;;;;;;;;;;-0.14;100.00;99806.47;5053425;28;19931;-72
2020/12/27 05:16:42;;;;;;;;;;;;;;;-0.15;100.00;99806.53;5053544;28;20009;-72
2020/12/27 05:19:10;;;;;;;;;;;;;;;-0.15;100.00;99806.53;5053272;28;19925;-72
2020/12/27 05:21:37;;;;;;;;;;;;;;;-0.11;100.00;99800.09;5053374;28;19932;-72
2020/12/27 05:24:07;;;;;;;;;;;;;;;-0.06;100.00;99806.06;5053384;28;19932;-72
2020/12/27 05:26:47;;;;;;;;;;;;;;;-0.12;100.00;99801.03;5053285;28;19964;-72
2020/12/27 05:29:37;;;;;;;;;;;;;;;-0.17;100.00;99786.13;5053241;28;19932;-72
2020/12/27 05:32:17;;;;;;;;;;;;;;;-0.17;100.00;99769.28;5052946;28;20348;-72
2020/12/27 05:35:13;;;;;;;;;;;;;;;-0.22;100.00;99756.16;5054233;28;19925;-72
2020/12/27 05:37:59;;;;;;;;;;;;;;;-0.24;100.00;99755.41;5053123;28;19925;-72
2020/12/27 05:40:44;;;;;;;;;;;;;;;-0.21;100.00;99749.03;5054046;28;19959;-72
2020/12/27 05:43:23;;;;;;;;;;;;;;;-0.23;100.00;99738.47;5052922;28;19931;-72
2020/12/27 05:45:57;;;;;;;;;;;;;;;-0.24;100.00;99743.84;5052666;28;19931;-72
2020/12/27 05:48:23;;;;;;;;;;;;;;;-0.23;100.00;99717.13;5052908;28;20425;-72
2020/12/27 05:50:50;;;;;;;;;;;;;;;-0.25;100.00;99715.47;5052678;28;20020;-72
2020/12/27 05:53:18;;;;;;;;;;;;;;;-0.29;100.00;99711.25;5051583;28;19948;-71
2020/12/27 05:55:47;;;;;;;;;;;;;;;-0.30;100.00;99705.03;5052606;28;20028;-71
2020/12/27 05:58:18;;;;;;;;;;;;;;;-0.33;100.00;99697.19;5052703;28;19932;-72
2020/12/27 06:00:49;;;;;;;;;;;;;;;-0.32;100.00;99664.25;5035842;28;20325;-72
2020/12/27 06:03:20;;;;;;;;;;;;;;;-0.35;100.00;99683.06;5052581;28;19925;-72
2020/12/27 06:06:09;;;;;;;;;;;;;;;-0.36;100.00;99668.88;5052490;28;20409;-72
2020/12/27 06:09:03;;;;;;;;;;;;;;;-0.42;100.00;99679.84;5052295;28;20452;-72
2020/12/27 06:11:45;;;;;;;;;;;;;;;-0.43;100.00;99661.28;5052468;28;20401;-72
2020/12/27 06:14:32;;;;;;;;;;;;;;;-0.44;100.00;99656.88;5052316;28;20298;-72
2020/12/27 06:17:24;;;;;;;;;;;;;;;-0.45;100.00;99641.84;5053201;28;19931;-72
2020/12/27 06:20:19;;;;;;;;;;;;;;;-0.45;100.00;99648.03;4998847;28;19930;-72
2020/12/27 06:22:48;;;;;;;;;;;;;;;-0.42;100.00;99639.00;5052259;28;19978;-72
2020/12/27 06:25:34;;;;;;;;;;;;;;;-0.43;100.00;99615.94;5052117;28;20381;-72
2020/12/27 06:28:00;;;;;;;;;;;;;;;-0.46;100.00;99618.78;5052038;28;19940;-72
2020/12/27 06:30:30;;;;;;;;;;;;;;;-0.45;100.00;99616.03;5051865;28;20382;-72
2020/12/27 06:33:33;;;;;;;;;;;;;;;-0.46;100.00;99624.97;5052986;28;19925;-72
2020/12/27 06:36:02;;;;;;;;;;;;;;;-0.46;100.00;99610.78;5051140;28;20016;-72
2020/12/27 06:38:31;;;;;;;;;;;;;;;-0.48;100.00;99620.66;5051154;28;19932;-72
2020/12/27 06:41:08;;;;;;;;;;;;;;;-0.51;100.00;99606.56;5051687;28;20389;-72
2020/12/27 06:43:54;;;;;;;;;;;;;;;-0.57;100.00;99598.88;5052236;28;20032;-72
2020/12/27 06:46:30;;;;;;;;;;;;;;;-0.52;100.00;99583.50;5051141;28;19935;-71
2020/12/27 06:49:09;;;;;;;;;;;;;;;-0.50;100.00;99578.09;5051636;28;19924;-71
2020/12/27 06:52:15;;;;;;;;;;;;;;;-0.49;100.00;99570.94;5051409;28;19948;-72
2020/12/27 06:55:03;;;;;;;;;;;;;;;-0.46;100.00;99571.63;5050549;28;19925;-72
2020/12/27 06:57:43;;;;;;;;;;;;;;;-0.46;100.00;99562.78;5051178;28;20018;-72
2020/12/27 07:00:25;;;;;;;;;;;;;;;-0.46;100.00;99565.47;5049806;28;19936;-72
2020/12/27 07:03:05;;;;;;;;;;;;;;;-0.45;100.00;99554.69;5036450;28;20075;-71
2020/12/27 07:05:34;;;;;;;;;;;;;;;-0.44;100.00;99552.88;5031554;28;20017;-71
2020/12/27 07:08:02;;;;;;;;;;;;;;;-0.38;100.00;99541.91;5036113;28;20442;-72
2020/12/27 07:10:29;;;;;;;;;;;;;;;-0.39;100.00;99548.16;5040271;28;20290;-71
2020/12/27 07:13:01;;;;;;;;;;;;;;;-0.36;100.00;99532.88;5039066;28;19925;-72
2020/12/27 07:15:28;;;;;;;;;;;;;;;-0.39;100.00;99530.38;5052146;28;20094;-72
2020/12/27 07:17:54;;;;;;;;;;;;;;;-0.35;100.00;99539.06;5051411;28;20006;-71
2020/12/27 07:20:22;;;;;;;;;;;;;;;-0.32;100.00;99540.69;5052199;28;19928;-71
2020/12/27 07:22:53;;;;;;;;;;;;;;;-0.38;100.00;99541.91;5051565;28;20519;-71
2020/12/27 07:25:21;;;;;;;;;;;;;;;-0.42;100.00;99535.84;5051945;28;20066;-72
2020/12/27 07:27:47;;;;;;;;;;;;;;;-0.42;100.00;99524.34;5051682;28;20449;-71
2020/12/27 07:30:15;;;;;;;;;;;;;;;-0.44;100.00;99516.44;5051679;28;20048;-72
2020/12/27 07:32:42;;;;;;;;;;;;;;;-0.42;100.00;99511.00;5051912;28;20008;-72
2020/12/27 07:35:09;;;;;;;;;;;;;;;-0.43;100.00;99509.28;5052018;28;20012;-72
2020/12/27 07:37:35;;;;;;;;;;;;;;;-0.41;100.00;99510.91;5051447;28;19932;-72
2020/12/27 07:40:01;;;;;;;;;;;;;;;-0.40;100.00;99514.44;5051772;28;20011;-71
2020/12/27 07:42:27;;;;;;;;;;;;;;;-0.42;100.00;99497.69;5051416;28;19925;-71
2020/12/27 07:44:55;;;;;;;;;;;;;;;-0.43;100.00;99494.13;5051795;28;19954;-71
2020/12/27 07:47:22;;;;;;;;;;;;;;;-0.43;100.00;99502.13;5051193;28;20015;-71
2020/12/27 07:50:05;;;;;;;9.57;5.35;;;;;;;-0.35;100.00;99477.72;5050207;28;20512;-71
2020/12/27 07:52:45;;;;;;;11.32;5.55;;;;;;;-0.24;100.00;99478.00;5049371;28;20508;-72
2020/12/27 07:55:11;;;;;;;8.77;4.60;;;;;;;-0.16;100.00;99480.22;5037275;28;20510;-72
2020/12/27 07:57:37;;;;;;;7.53;4.60;;;;;;;-0.12;100.00;99479.09;5029761;28;20580;-72
2020/12/27 08:00:04;;;;;;;;;;;;;;;-0.23;100.00;99485.06;5050154;28;20440;-72
2020/12/27 08:02:41;;;;;;;;;;;;;;;-0.29;100.00;99484.53;5049582;28;19927;-71
2020/12/27 08:05:09;;;;;;;;;;;;;;;-0.30;100.00;99462.31;5047785;28;20019;-72
2020/12/27 08:07:35;;;;;;;;;;;;;;;-0.31;100.00;99463.25;5051021;28;20023;-71
2020/12/27 08:10:11;;;;;;;;;;;;;;;-0.29;100.00;99464.03;5051457;28;20325;-71
2020/12/27 08:12:37;;;;;;;3.55;3.22;;;;;;;-0.25;100.00;99448.75;5050947;28;19920;-72
2020/12/27 08:15:07;;;;;;;10.15;4.40;;;;;;;-0.11;100.00;99469.28;5049154;28;20424;-71
2020/12/27 08:17:33;;;;;;;6.50;4.13;;;;;;;-0.05;100.00;99451.13;5049341;28;20429;-72
2020/12/27 08:20:01;;;;;;;;;;;;;;;-0.16;100.00;99456.22;5050414;28;20490;-71
2020/12/27 08:22:27;;;;;;;7.57;3.28;;;;;;;-0.15;100.00;99452.56;5047546;28;20796;-71
2020/12/27 08:24:52;;;;;;;;;;;;;;;-0.17;100.00;99450.00;5050690;28;20413;-71
2020/12/27 08:27:18;;;;;;;;;;;;;;;-0.20;100.00;99457.31;5051050;28;20418;-71
2020/12/27 08:29:44;;;;;;;;;;;;;;;-0.20;100.00;99439.53;5051293;28;19929;-72
2020/12/27 08:32:10;;;;;;;;;;;;;;;-0.15;100.00;99441.06;5050929;28;19921;-72
2020/12/27 08:34:36;;;;;;;;;;;;;;;-0.19;100.00;99440.38;5049912;28;19921;-71
2020/12/27 08:37:02;;;;;;;9.30;4.20;;;;;;;-0.12;100.00;99452.44;5048355;28;20446;-72
2020/12/27 08:39:33;;;;;;;;;;;;;;;-0.06;100.00;99453.88;5048519;28;20464;-71
2020/12/27 08:42:02;;;;;;;;;;;;;;;-0.07;100.00;99438.81;5049722;28;19974;-71
2020/12/27 08:44:34;;;;;;;;;;;;;;;-0.03;100.00;99456.34;5050731;28;19928;-72
2020/12/27 08:47:02;;;;;;;;;;;;;;;0.00;100.00;99432.19;5050448;28;20015;-72
2020/12/27 08:49:44;;;;;;;9.45;4.75;;;;;;;0.13;100.00;99418.97;5050238;28;20477;-72
2020/12/27 08:52:14;;;;;;;;;;;;;;;0.08;100.00;99429.94;5050521;28;20962;-71
2020/12/27 08:54:41;;;;;;;;;;;;;;;0.09;100.00;99438.78;5047633;28;19940;-72
2020/12/27 08:57:07;;;;;;;;;;;;;;;0.12;100.00;99420.78;5050495;28;19920;-72
2020/12/27 08:59:32;;;;;;;;;;;;;;;0.20;100.00;99423.00;5050779;28;20446;-72
2020/12/27 09:02:08;;;;;;;;;;;;;;;0.22;100.00;99444.28;5050834;28;19962;-72
2020/12/27 09:04:33;;;;;;;;;;;;;;;0.28;100.00;99430.53;5050982;28;20360;-72
2020/12/27 09:06:59;;;;;;;;;;;;;;;0.26;100.00;99435.97;5050610;28;19920;-72
2020/12/27 09:09:26;;;;;;;;;;;;;;;0.33;100.00;99444.47;5050603;28;19924;-72
2020/12/27 09:11:51;;;;;;;;;;;;;;;0.40;100.00;99435.16;5050837;28;19990;-72
2020/12/27 09:14:33;;;;;;;;;;;;;;;0.39;100.00;99429.91;5050397;28;19920;-72
2020/12/27 09:17:00;;;;;;;;;;;;;;;0.50;100.00;99428.31;5050628;28;19921;-72
2020/12/27 09:19:27;;;;;;;;;;;;;;;0.62;100.00;99423.19;5049371;28;19920;-72
2020/12/27 09:21:52;;;;;;;;;;;;;;;0.70;100.00;99436.09;5050514;28;19924;-72
2020/12/27 09:24:18;;;;;;;;;;;;;;;0.69;100.00;99418.34;5049587;28;20020;-72
2020/12/27 09:26:45;;;;;;;;;;;;;;;0.72;100.00;99424.34;5051410;28;19954;-72
2020/12/27 09:29:14;;;;;;;;;;;;;;;0.69;100.00;99408.50;5054197;28;20009;-72
2020/12/27 09:31:40;;;;;;;;;;;;;;;0.55;100.00;99393.31;5054349;28;20019;-72
2020/12/27 09:34:06;;;;;;;;;;;;;;;0.46;100.00;99394.72;5054024;28;20067;-72
2020/12/27 09:36:32;;;;;;;;;;;;;;;0.46;100.00;99386.72;5054253;28;19920;-72
2020/12/27 09:38:57;;;;;;;;;;;;;;;0.39;100.00;99376.50;5053613;28;19933;-72
2020/12/27 09:41:24;;;;;;;;;;;;;;;0.39;100.00;99381.84;5052460;28;20305;-72
2020/12/27 09:43:52;;;;;;;;;;;;;;;0.35;100.00;99378.53;5053892;28;19928;-72
2020/12/27 09:46:36;;;;;;;;;;;;;;;0.36;100.00;99388.25;5054076;28;19932;-72
2020/12/27 09:49:14;;;;;;;;;;;;;;;0.36;100.00;99380.25;5052065;28;19975;-72
2020/12/27 09:51:41;;;;;;;;;;;;;;;0.30;100.00;99360.09;5053327;28;19963;-72
2020/12/27 09:54:07;;;;;;;;;;;;;;;0.30;100.00;99351.25;5053442;28;19927;-72
2020/12/27 09:56:40;;;;;;;19.92;10.05;;;;;;;0.38;100.00;99332.94;5050995;28;20454;-72
2020/12/27 09:59:06;;;;;;;;;;;;;;;0.34;100.00;99326.06;5052967;28;20432;-72
2020/12/27 10:01:32;;;;;;;17.58;10.68;;;;;;;0.54;100.00;99340.00;5033403;28;20513;-72
2020/12/27 10:03:58;;;;;;;;;;;;;;;0.38;100.00;99316.06;5033261;28;20499;-72
2020/12/27 10:06:24;;;;;;;;;;;;;;;0.38;100.00;99327.59;5045908;28;20249;-72
2020/12/27 10:08:50;;;;;;;;;;;;;;;0.38;100.00;99338.28;5052916;28;19920;-71
2020/12/27 10:11:15;;;;;;;;;;;;;;;0.41;100.00;99315.88;5053462;28;19924;-72
2020/12/27 10:13:41;;;;;;;;;;;;;;;0.36;100.00;99321.50;5053410;28;20438;-72
2020/12/27 10:16:08;;;;;;;;;;;;;;;0.34;100.00;99318.06;5052658;28;19931;-72
2020/12/27 10:18:34;;;;;;;;;;;;;;;0.33;100.00;99319.00;5053322;28;20504;-72
2020/12/27 10:20:59;;;;;;;;;;;;;;;0.33;100.00;99305.66;5053399;28;20428;-72
2020/12/27 10:23:25;;;;;;;;;;;;;;;0.26;100.00;99297.16;5053468;28;19931;-72
2020/12/27 10:25:51;;;;;;;;;;;;;;;0.28;100.00;99310.41;5053050;28;19921;-72
2020/12/27 10:28:17;;;;;;;;;;;;;;;0.30;100.00;99309.38;5053290;28;20024;-71
2020/12/27 10:30:42;;;;;;;;;;;;;;;0.30;100.00;99295.19;5053196;28;20301;-72
2020/12/27 10:33:12;;;;;;;;;;;;;;;0.22;100.00;99284.13;5051655;28;19921;-72
2020/12/27 10:35:37;;;;;;;;;;;;;;;0.29;100.00;99290.78;5042621;28;20518;-72
2020/12/27 10:38:03;;;;;;;;;;;;;;;0.32;100.00;99285.25;5037326;28;19932;-72
2020/12/27 10:40:29;;;;;;;;;;;;;;;0.36;100.00;99280.59;5042019;28;20383;-71
2020/12/27 10:42:55;;;;;;;2.80;2.10;;;;;;;0.30;100.00;99236.44;5038718;28;20016;-71
2020/12/27 10:45:21;;;;;;;7.47;4.70;;;;;;;0.47;100.00;99244.25;5039540;28;20548;-72
2020/12/27 10:47:46;;;;;;;;;;;;;;;0.47;100.00;99244.25;5034408;28;20504;-71
2020/12/27 10:50:13;;;;;;;10.15;4.75;;;;;;;0.49;100.00;99249.50;5042256;28;20432;-71
2020/12/27 10:52:39;;;;;;;8.43;4.53;;;;;;;0.47;100.00;99222.91;5035027;28;20518;-71
2020/12/27 10:55:05;;;;;;;10.63;4.10;;;;;;;0.48;100.00;99221.94;5033976;28;20407;-72
2020/12/27 10:57:31;;;;;;;;;;;;;;;0.43;100.00;99218.72;5034484;28;20415;-71
2020/12/27 10:59:56;;;;;;;;;;;;;;;0.44;100.00;99208.88;5044334;28;20442;-71
2020/12/27 11:02:22;;;;;;;5.22;3.53;;;;;;;0.53;100.00;99210.13;5048385;28;20452;-71
2020/12/27 11:04:48;;;;;;;6.70;4.05;;;;;;;0.63;100.00;99206.75;5050916;28;20421;-71
2020/12/27 11:07:15;;;;;;;;;;;;;;;0.61;100.00;99183.78;5051338;28;20424;-71
2020/12/27 11:09:41;;;;;;;6.63;3.80;;;;;;;0.74;100.00;99179.34;5050010;28;20439;-72
2020/12/27 11:12:06;;;;;;;;;;;;;;;0.57;100.00;99201.78;5051661;28;20452;-71
2020/12/27 11:14:32;;;;;;;;;;;;;;;0.69;100.00;99192.13;5052132;28;20444;-71
2020/12/27 11:16:58;;;;;;;;;;;;;;;0.64;100.00;99188.91;5052180;28;19924;-71
2020/12/27 11:19:24;;;;;;;6.35;3.78;;;;;;;0.82;100.00;99144.97;5050950;28;21269;-71
2020/12/27 11:21:50;;;;;;;7.80;3.60;;;;;;;1.01;100.00;99170.47;5050424;28;20452;-71
2020/12/27 11:24:16;;;;;;;9.45;4.13;;;;;;;1.06;100.00;99163.00;5050429;28;20467;-71
2020/12/27 11:26:42;;;;;;;4.78;3.15;;;;;;;0.87;99.95;99152.69;5051243;28;20453;-72
2020/12/27 11:29:08;;;;;;;;;;;;;;;0.81;99.93;99145.91;5051557;28;20420;-71
2020/12/27 11:31:34;;;;;;;;;;;;;;;0.80;99.91;99154.03;5052034;28;19921;-71
2020/12/27 11:33:59;;;;;;;;;;;;;;;0.82;99.99;99144.97;5051963;28;19921;-71
2020/12/27 11:36:25;;;;;;;;;;;;;;;0.80;99.02;99130.88;5051486;28;20398;-71
2020/12/27 11:38:51;;;;;;;;;;;;;;;0.84;97.81;99120.81;5051909;28;19920;-71
2020/12/27 11:41:17;;;;;;;;;;;;;;;0.85;97.29;99130.53;5051513;28;19927;-71
2020/12/27 11:43:43;;;;;;;;;;;;;;;0.87;95.72;99109.94;5052235;28;19964;-71
2020/12/27 11:46:09;;;;;;;;;;;;;;;0.91;95.09;99105.22;5051660;28;19955;-71
2020/12/27 11:48:35;;;;;;;;;;;;;;;0.92;94.12;99096.25;5051732;28;19924;-71
2020/12/27 11:51:01;;;;;;;;;;;;;;;0.96;91.45;99103.09;5050941;28;19921;-71
2020/12/27 11:53:26;;;;;;;;;;;;;;;0.98;92.77;99095.84;5051518;28;19966;-71
2020/12/27 11:55:52;;;;;;;;;;;;;;;1.02;90.05;99075.09;5051609;28;20513;-71
2020/12/27 11:58:19;;;;;;;;;;;;;;;1.06;89.04;99085.50;5050997;28;20446;-71
2020/12/27 12:00:45;;;;;;;4.00;2.75;;;;;;;1.17;91.63;99071.41;5050058;28;20967;-71
2020/12/27 12:03:10;;;;;;;;;;;;;;;1.10;88.02;99062.09;5051273;28;20421;-71
2020/12/27 12:05:36;;;;;;;;;;;;;;;1.09;88.06;99055.88;5051224;28;19939;-71
2020/12/27 12:08:02;;;;;;;;;;;;;;;1.08;87.28;99016.78;5051465;28;19921;-71
2020/12/27 12:10:28;;;;;;;;;;;;;;;1.23;87.69;99024.66;5050222;28;20450;-71
2020/12/27 12:12:54;;;;;;;;;;;;;;;1.15;86.13;99027.91;5051669;28;19932;-71
2020/12/27 12:15:20;;;;;;;;;;;;;;;1.12;86.51;98994.22;5051031;28;19924;-72
2020/12/27 12:17:46;;;;;;;;;;;;;;;1.14;87.07;99032.38;5051061;28;20027;-71
2020/12/27 12:22:52;;;;;;;4.90;2.58;;;;;;;1.22;87.53;99005.13;5049152;28;20437;-72
2020/12/27 12:25:18;;;;;;;;;;;;;;;1.20;86.15;99008.84;5050190;28;20486;-71
2020/12/27 12:27:44;;;;;;;;;;;;;;;1.15;85.50;99006.50;5048196;28;19928;-72
2020/12/27 12:30:09;;;;;;;;;;;;;;;1.13;85.83;99008.44;5035088;28;19921;-72
2020/12/27 12:32:36;;;;;;;3.97;2.40;;;;;;;1.28;87.36;98990.44;5042785;28;20434;-72
2020/12/27 12:35:02;;;;;;;4.63;2.30;;;;;;;1.39;85.72;99001.25;5048766;28;20998;-72
2020/12/27 12:37:28;;;;;;;;;;;;;;;1.17;84.76;98978.69;5050777;28;20453;-73
2020/12/27 12:39:54;;;;;;;;;;;;;;;1.16;85.80;98987.69;5050690;28;20297;-72
2020/12/27 12:42:19;;;;;;;3.53;2.47;;;;;;;1.30;87.90;98983.19;5047214;28;20495;-73
2020/12/27 12:44:45;;;;;;;;;;;;;;;1.16;85.38;98981.47;5051228;28;20461;-73
2020/12/27 12:47:11;;;;;;;4.22;2.20;;;;;;;1.22;86.45;98973.03;5049172;28;20437;-72
2020/12/27 12:49:38;;;;;;;;;;;;;;;1.11;85.44;98968.44;5049396;28;20794;-72